KSHD/SHD METAR and TAF weather

Enter ICAO airport designator
Station Type Date Time Source
KSHD METAR 2022/05/26 05:55 UTC NOAA

KSHD 260555Z AUTO 00000KT 10SM OVC015 14/12 A3031 RMK AO2 T01400121 10167 20140 401970125


Station Type Date Time Source
KSHD Decoded METAR 2022/05/26 05:55 UTC NOAA

Staunton / Shenandoah, VA, United States (KSHD) 38-16N 078-54W
May 26, 2022 - 01:55 AM EDT / 2022.05.26 0555 UTC
Wind: Calm:0
Visibility: 10 mile(s):0
Sky conditions: overcast
Temperature: 57.2 F (14.0 C)
Dew Point: 53.8 F (12.1 C)
Relative Humidity: 88%
Pressure (altimeter): 30.31 in. Hg (1026 hPa)
ob: KSHD 260555Z AUTO 00000KT 10SM OVC015 14/12 A3031 RMK AO2 T01400121 10167 20140 401970125
cycle: 6

Station Type Date Time Source
KSHD TAF UTC NOAA

Error!

Example: see airport list